Terminal Aerodrome Forecast
Issued by NWS

Home | Current Version | Previous Version | Text Only | Print | Product List | Glossary On
Versions: 1 2 3 4 5 6 7 8 9 10 11 12 13 14 15 16 17 18 19
523
FTUS41 KPBZ 212009 AAA
TAFAGC
TAF AMD
KAGC 212009Z 2120/2218 19007KT P6SM OVC150
     FM220600 18005KT P6SM BKN050
     FM221000 20004KT 5SM BR BKN025
     FM221500 21005KT P6SM BKN035=

USA.gov is the U.S. government's official web portal to all federal, state and local government web resources and services.